Time;durP1;ratioP1;P1;durP2;ratioP2;P2;SDS_P1;SDS_P2;PMS_P1;PMS_P2;Temp;Humidity;BMP_temperature;BMP_pressure;BME280_temperature;BME280_humidity;BME280_pressure;Samples;Min_cycle;Max_cycle;Signal;HPM_P1;HPM_P2
2023/03/05 00:01:36;;;;;;;38.30;19.77;;;102.60;2227.20;;;;;;4963731;28;20087;-61
2023/03/05 00:04:04;;;;;;;40.80;23.05;;;102.60;2227.20;;;;;;4964391;28;20023;-61
2023/03/05 00:06:31;;;;;;;38.42;19.67;;;102.60;2227.20;;;;;;4970559;28;20042;-58
2023/03/05 00:08:57;;;;;;;43.47;21.88;;;102.70;2227.20;;;;;;4970065;28;20026;-61
2023/03/05 00:11:26;;;;;;;39.45;21.23;;;102.60;2227.20;;;;;;4970976;28;20031;-60
2023/03/05 00:13:53;;;;;;;45.72;22.55;;;102.70;2227.20;;;;;;4970522;28;20107;-61
2023/03/05 00:16:19;;;;;;;54.28;26.40;;;102.70;2227.20;;;;;;4970262;28;20111;-61
2023/03/05 00:18:45;;;;;;;45.92;22.60;;;102.60;2227.20;;;;;;4970052;28;20485;-60
2023/03/05 00:21:21;;;;;;;48.13;23.73;;;102.50;2227.20;;;;;;4973946;28;20059;-60
2023/03/05 00:23:49;;;;;;;35.97;20.95;;;102.70;2227.20;;;;;;4973722;28;20030;-60
2023/03/05 00:26:16;;;;;;;51.15;25.70;;;102.60;2227.20;;;;;;4973818;28;20035;-60
2023/03/05 00:28:41;;;;;;;44.03;20.35;;;102.80;2227.20;;;;;;4973906;28;20046;-60
2023/03/05 00:31:07;;;;;;;44.22;23.17;;;102.80;2227.20;;;;;;4973575;28;20110;-61
2023/03/05 00:33:33;;;;;;;43.80;21.13;;;102.90;2227.20;;;;;;4973755;28;20089;-61
2023/03/05 00:36:01;;;;;;;44.90;22.88;;;102.80;2227.20;;;;;;4973438;28;20085;-61
2023/03/05 00:38:26;;;;;;;52.22;28.70;;;102.80;2227.20;;;;;;4973012;28;20482;-60
2023/03/05 00:40:52;;;;;;;37.95;19.88;;;102.70;2227.20;;;;;;4974009;28;20050;-60
2023/03/05 00:43:18;;;;;;;54.35;30.30;;;102.60;2227.20;;;;;;4973430;28;20023;-61
2023/03/05 00:45:43;;;;;;;42.70;23.13;;;102.60;2227.20;;;;;;4973483;28;20029;-61
2023/03/05 00:48:09;;;;;;;40.00;21.20;;;102.50;2227.20;;;;;;4973490;28;20033;-61
2023/03/05 00:50:35;;;;;;;45.75;25.38;;;102.50;2227.20;;;;;;4973318;28;20103;-61
2023/03/05 00:53:01;;;;;;;41.00;21.90;;;102.50;2227.20;;;;;;4973267;28;20034;-60
2023/03/05 00:55:26;;;;;;;41.22;21.50;;;102.60;2227.20;;;;;;4973329;28;20031;-61
2023/03/05 00:57:52;;;;;;;36.83;20.98;;;102.70;2227.20;;;;;;4973206;28;20030;-61
2023/03/05 01:00:18;;;;;;;39.42;20.40;;;102.70;2227.20;;;;;;4973098;28;20027;-60
2023/03/05 01:02:44;;;;;;;30.77;18.15;;;102.90;2227.20;;;;;;4973017;28;20489;-60
2023/03/05 01:05:11;;;;;;;43.00;19.92;;;102.90;2227.20;;;;;;4973213;28;20031;-60
2023/03/05 01:07:37;;;;;;;36.15;17.73;;;102.90;2227.20;;;;;;4972871;28;20474;-60
2023/03/05 01:10:04;;;;;;;35.47;17.83;;;103.00;2227.20;;;;;;4972946;28;20026;-60
2023/03/05 01:12:29;;;;;;;32.67;16.92;;;102.90;2227.20;;;;;;4973214;28;20054;-60
2023/03/05 01:14:55;;;;;;;40.20;18.77;;;103.20;2227.20;;;;;;4973309;28;20548;-60
2023/03/05 01:17:21;;;;;;;47.65;19.67;;;102.80;2227.20;;;;;;4972916;28;20393;-61
2023/03/05 01:19:46;;;;;;;45.55;22.13;;;103.00;2227.20;;;;;;4972949;28;20131;-61
2023/03/05 01:22:12;;;;;;;37.35;20.15;;;103.00;2227.20;;;;;;4972573;28;20034;-60
2023/03/05 01:24:38;;;;;;;48.67;19.63;;;103.00;2227.20;;;;;;4972580;28;20027;-60
2023/03/05 01:27:04;;;;;;;49.45;21.92;;;102.90;2227.20;;;;;;4972894;28;20027;-60
2023/03/05 01:29:29;;;;;;;52.90;26.27;;;102.80;2227.20;;;;;;4972849;28;20260;-61
2023/03/05 01:31:55;;;;;;;50.85;23.20;;;102.90;2227.20;;;;;;4972699;28;20039;-61
2023/03/05 01:34:21;;;;;;;49.03;22.73;;;102.80;2227.20;;;;;;4972900;28;20066;-60
2023/03/05 01:36:49;;;;;;;48.20;23.52;;;103.00;2227.20;;;;;;4972152;28;20042;-61
2023/03/05 01:39:15;;;;;;;42.95;21.95;;;103.10;2227.20;;;;;;4972039;28;20042;-61
2023/03/05 01:41:41;;;;;;;40.28;21.90;;;128.00;2252.80;;;;;;4972557;28;20031;-60
2023/03/05 01:44:25;;;;;;;34.28;17.25;;;128.10;2252.80;;;;;;4972494;28;20484;-60
2023/03/05 01:46:51;;;;;;;59.33;28.75;;;128.20;2252.80;;;;;;4972297;28;20046;-60
2023/03/05 01:49:32;;;;;;;67.15;34.95;;;128.30;2252.80;;;;;;4972249;28;20026;-60
2023/03/05 01:52:03;;;;;;;37.88;19.73;;;128.40;2252.80;;;;;;4960198;28;20050;-61
2023/03/05 01:54:51;;;;;;;46.50;22.52;;;128.50;2252.80;;;;;;4971838;28;20077;-61
2023/03/05 01:57:26;;;;;;;35.75;19.73;;;128.60;2252.80;;;;;;4972013;28;20417;-61
2023/03/05 01:59:56;;;;;;;40.30;17.50;;;128.70;2252.80;;;;;;4971989;28;20058;-61
2023/03/05 02:02:23;;;;;;;71.28;36.28;;;128.60;2252.80;;;;;;4972304;28;20480;-61
2023/03/05 02:04:53;;;;;;;48.67;27.67;;;128.70;2252.80;;;;;;4971913;28;20026;-61
2023/03/05 02:07:20;;;;;;;44.63;23.67;;;128.70;2252.80;;;;;;4971953;28;20023;-61
2023/03/05 02:09:46;;;;;;;172.05;91.05;;;128.80;2252.80;;;;;;4971528;28;20033;-60
2023/03/05 02:12:12;;;;;;;135.07;78.88;;;128.80;2252.80;;;;;;4972119;28;20031;-61
2023/03/05 02:14:41;;;;;;;69.18;39.65;;;128.80;2252.80;;;;;;4971792;28;20061;-60
2023/03/05 02:17:08;;;;;;;68.32;35.70;;;128.80;2252.80;;;;;;4971589;28;20035;-61
2023/03/05 02:19:52;;;;;;;56.85;29.63;;;128.80;2252.80;;;;;;4972061;28;20022;-60
2023/03/05 02:22:21;;;;;;;47.33;29.00;;;128.70;2252.80;;;;;;4971683;28;20378;-61
2023/03/05 02:24:46;;;;;;;64.53;34.17;;;128.80;2252.80;;;;;;4971491;28;20493;-60
2023/03/05 02:27:14;;;;;;;57.20;32.75;;;128.80;2252.80;;;;;;4971575;28;20057;-61
2023/03/05 02:29:45;;;;;;;59.47;28.58;;;128.70;2252.80;;;;;;4971429;28;20081;-60
2023/03/05 02:32:12;;;;;;;52.92;27.13;;;128.50;2252.80;;;;;;4971874;28;20030;-61
2023/03/05 02:34:38;;;;;;;59.80;27.10;;;128.60;2252.80;;;;;;4971402;28;20478;-62
2023/03/05 02:37:07;;;;;;;75.70;44.47;;;128.60;2252.80;;;;;;4971613;28;20089;-65
2023/03/05 02:39:33;;;;;;;92.55;51.15;;;128.80;2252.80;;;;;;4971154;28;20053;-60
2023/03/05 02:42:00;;;;;;;203.32;99.78;;;128.80;2252.80;;;;;;4970786;28;20062;-65
2023/03/05 02:44:26;;;;;;;70.43;44.00;;;128.80;2252.80;;;;;;4971223;28;20026;-60
2023/03/05 02:46:52;;;;;;;50.65;29.05;;;128.90;2252.80;;;;;;4971624;28;20089;-60
2023/03/05 02:49:17;;;;;;;38.50;21.42;;;128.90;2252.80;;;;;;4971317;28;20023;-60
2023/03/05 02:51:43;;;;;;;52.38;26.30;;;153.60;2252.80;;;;;;4971274;28;20030;-60
2023/03/05 02:54:09;;;;;;;39.75;20.55;;;153.60;2252.80;;;;;;4971134;28;20050;-61
2023/03/05 02:56:37;;;;;;;42.22;20.58;;;153.60;2252.80;;;;;;4971248;28;20469;-58
2023/03/05 02:59:02;;;;;;;41.08;20.42;;;153.60;2252.80;;;;;;4971444;28;20030;-60
2023/03/05 03:01:28;;;;;;;47.42;23.88;;;153.70;2252.80;;;;;;4971040;28;20477;-61
2023/03/05 03:03:54;;;;;;;42.50;22.63;;;153.70;2252.80;;;;;;4971564;28;20031;-60
2023/03/05 03:06:20;;;;;;;44.65;22.98;;;153.70;2252.80;;;;;;4971201;28;20023;-61
2023/03/05 03:08:46;;;;;;;42.97;22.75;;;153.70;2252.80;;;;;;4970949;28;20106;-61
2023/03/05 03:11:12;;;;;;;41.67;22.65;;;153.80;2252.80;;;;;;4971044;28;20031;-60
2023/03/05 03:13:38;;;;;;;44.58;22.00;;;153.80;2252.80;;;;;;4970753;28;20026;-60
2023/03/05 03:16:07;;;;;;;41.90;23.40;;;153.80;2252.80;;;;;;4970821;28;20034;-61
2023/03/05 03:18:33;;;;;;;51.50;22.92;;;153.80;2252.80;;;;;;4971042;28;20023;-60
2023/03/05 03:20:59;;;;;;;40.80;20.83;;;153.90;2252.80;;;;;;4970969;28;20077;-61
2023/03/05 03:23:25;;;;;;;39.33;22.42;;;153.90;2252.80;;;;;;4970410;28;20066;-61
2023/03/05 03:25:51;;;;;;;44.05;22.92;;;153.90;2252.80;;;;;;4968221;28;20042;-61
2023/03/05 03:28:17;;;;;;;41.42;22.73;;;153.90;2252.80;;;;;;4971145;28;20035;-71
2023/03/05 03:30:43;;;;;;;52.63;21.38;;;154.00;2252.80;;;;;;4970770;28;20037;-60
2023/03/05 03:33:08;;;;;;;43.42;21.83;;;153.90;2252.80;;;;;;4970107;28;20022;-59
2023/03/05 03:35:34;;;;;;;37.90;20.33;;;154.00;2252.80;;;;;;4970398;28;20031;-60
2023/03/05 03:38:00;;;;;;;38.10;20.70;;;154.00;2252.80;;;;;;4970015;28;20034;-60
2023/03/05 03:40:26;;;;;;;34.28;19.02;;;153.90;2252.80;;;;;;4970059;28;20053;-61
2023/03/05 03:42:52;;;;;;;43.53;23.42;;;154.00;2252.80;;;;;;4970243;28;20035;-71
2023/03/05 03:45:20;;;;;;;45.47;22.42;;;154.00;2252.80;;;;;;4970166;28;20031;-67
2023/03/05 03:47:50;;;;;;;37.58;21.73;;;154.10;2252.80;;;;;;4970116;28;20085;-69
2023/03/05 03:50:17;;;;;;;46.17;23.67;;;154.10;2252.80;;;;;;4970459;28;20051;-59
2023/03/05 03:52:43;;;;;;;47.58;23.70;;;154.10;2252.80;;;;;;4970882;28;20034;-60
2023/03/05 03:55:09;;;;;;;41.75;21.30;;;154.10;2252.80;;;;;;4972357;28;20094;-61
2023/03/05 03:57:36;;;;;;;38.50;22.30;;;154.10;2252.80;;;;;;4964306;28;20039;-61
2023/03/05 04:00:05;;;;;;;42.80;22.27;;;154.10;2252.80;;;;;;4971695;28;20478;-61
2023/03/05 04:02:31;;;;;;;34.35;20.10;;;154.10;2252.80;;;;;;4974317;28;20035;-60
2023/03/05 04:04:57;;;;;;;39.10;20.58;;;154.10;2252.80;;;;;;4973955;28;20025;-61
2023/03/05 04:07:23;;;;;;;67.10;35.40;;;154.10;2252.80;;;;;;4974532;28;20027;-61
2023/03/05 04:09:49;;;;;;;39.33;22.02;;;154.10;2252.80;;;;;;4973844;28;20061;-61
2023/03/05 04:12:17;;;;;;;39.55;21.75;;;154.00;2252.80;;;;;;4973931;28;20027;-61
2023/03/05 04:14:47;;;;;;;41.90;21.65;;;154.00;2252.80;;;;;;4974036;28;20115;-60
2023/03/05 04:17:13;;;;;;;33.70;19.40;;;154.00;2252.80;;;;;;4974225;28;20039;-61
2023/03/05 04:19:40;;;;;;;45.17;21.63;;;154.00;2252.80;;;;;;4973865;28;20019;-61
2023/03/05 04:22:13;;;;;;;39.15;19.80;;;154.00;2252.80;;;;;;4973816;28;20481;-61
2023/03/05 04:24:39;;;;;;;36.30;20.95;;;154.10;2252.80;;;;;;4973925;28;20548;-61
2023/03/05 04:27:05;;;;;;;36.63;22.42;;;154.10;2252.80;;;;;;4974045;28;20042;-61
2023/03/05 04:29:31;;;;;;;33.75;19.55;;;154.20;2252.80;;;;;;4973985;28;20031;-61
2023/03/05 04:31:57;;;;;;;31.27;19.38;;;154.20;2252.80;;;;;;4973649;28;20031;-61
2023/03/05 04:34:23;;;;;;;35.45;19.17;;;154.30;2252.80;;;;;;4973947;28;20033;-61
2023/03/05 04:36:48;;;;;;;35.83;19.60;;;154.40;2252.80;;;;;;4973568;28;20396;-61
2023/03/05 04:39:14;;;;;;;36.67;20.10;;;154.30;2252.80;;;;;;4973277;28;20039;-61
2023/03/05 04:41:40;;;;;;;35.72;19.02;;;154.40;2252.80;;;;;;4973586;28;20059;-61
2023/03/05 04:44:06;;;;;;;38.58;19.02;;;154.40;2252.80;;;;;;4973305;28;20030;-61
2023/03/05 04:46:32;;;;;;;38.60;20.75;;;154.40;2252.80;;;;;;4973738;28;20117;-61
2023/03/05 04:48:57;;;;;;;40.40;21.67;;;154.30;2252.80;;;;;;4973676;28;20027;-60
2023/03/05 04:51:23;;;;;;;39.53;22.10;;;154.30;2252.80;;;;;;4973567;28;20709;-60
2023/03/05 04:53:49;;;;;;;38.33;21.73;;;154.40;2252.80;;;;;;4964214;28;20028;-71
2023/03/05 04:56:15;;;;;;;42.17;22.92;;;154.30;2252.80;;;;;;4969776;28;20405;-61
2023/03/05 04:58:40;;;;;;;46.15;22.20;;;154.30;2252.80;;;;;;4973446;28;20034;-61
2023/03/05 05:01:06;;;;;;;37.67;20.38;;;154.30;2252.80;;;;;;4973140;28;20033;-61
2023/03/05 05:03:33;;;;;;;36.83;19.15;;;154.30;2252.80;;;;;;4973325;28;20031;-60
2023/03/05 05:05:59;;;;;;;33.13;19.90;;;154.20;2252.80;;;;;;4972599;28;20470;-60
2023/03/05 05:08:26;;;;;;;38.30;19.27;;;154.20;2252.80;;;;;;4973056;28;20039;-61
2023/03/05 05:11:03;;;;;;;38.45;20.88;;;154.10;2252.80;;;;;;4972967;28;20540;-61
2023/03/05 05:13:29;;;;;;;33.35;19.63;;;154.00;2252.80;;;;;;4972931;28;20099;-60
2023/03/05 05:15:55;;;;;;;40.05;20.55;;;154.00;2252.80;;;;;;4973033;28;20019;-61
2023/03/05 05:18:21;;;;;;;37.28;20.58;;;154.00;2252.80;;;;;;4973592;28;20029;-60
2023/03/05 05:20:47;;;;;;;38.28;21.13;;;154.00;2252.80;;;;;;4972732;28;20033;-60
2023/03/05 05:23:14;;;;;;;42.22;22.20;;;154.00;2252.80;;;;;;4972832;28;20067;-60
2023/03/05 05:25:39;;;;;;;47.17;18.73;;;154.10;2252.80;;;;;;4972464;28;20445;-61
2023/03/05 05:28:05;;;;;;;36.40;19.10;;;154.10;2252.80;;;;;;4972606;28;20035;-60
2023/03/05 05:30:31;;;;;;;40.05;19.98;;;154.20;2252.80;;;;;;4972971;28;20031;-60
2023/03/05 05:32:57;;;;;;;29.75;19.70;;;154.20;2252.80;;;;;;4972528;28;20027;-60
2023/03/05 05:35:23;;;;;;;38.53;19.48;;;154.20;2252.80;;;;;;4972995;28;20480;-60
2023/03/05 05:37:48;;;;;;;39.55;19.48;;;154.30;2252.80;;;;;;4972429;28;20552;-60
2023/03/05 05:40:14;;;;;;;32.78;19.25;;;154.40;2252.80;;;;;;4972409;28;20571;-60
2023/03/05 05:42:40;;;;;;;37.50;18.08;;;154.40;2252.80;;;;;;4972262;28;20401;-60
2023/03/05 05:45:06;;;;;;;30.45;17.08;;;154.50;2252.80;;;;;;4972235;28;20157;-61
2023/03/05 05:47:32;;;;;;;45.78;25.83;;;179.20;2252.80;;;;;;4972508;28;20504;-60
2023/03/05 05:49:58;;;;;;;41.97;22.00;;;154.50;2252.80;;;;;;4972389;28;20031;-60
2023/03/05 05:52:23;;;;;;;43.47;23.23;;;154.30;2252.80;;;;;;4972586;28;20433;-60
2023/03/05 05:54:49;;;;;;;43.67;23.70;;;154.40;2252.80;;;;;;4971823;28;20089;-60
2023/03/05 05:57:15;;;;;;;39.13;19.60;;;154.50;2252.80;;;;;;4972117;28;20102;-71
2023/03/05 05:59:41;;;;;;;38.90;21.23;;;179.20;2252.80;;;;;;4972342;28;20023;-61
2023/03/05 06:02:07;;;;;;;39.70;19.98;;;179.30;2252.80;;;;;;4971938;28;20034;-61
2023/03/05 06:04:33;;;;;;;43.25;24.25;;;179.40;2252.80;;;;;;4972138;28;20513;-61
2023/03/05 06:06:59;;;;;;;99.55;77.53;;;179.50;2252.80;;;;;;4972001;28;20031;-61
2023/03/05 06:09:25;;;;;;;52.53;30.23;;;179.50;2252.80;;;;;;4971915;28;20057;-61
2023/03/05 06:11:51;;;;;;;47.75;29.45;;;179.40;2252.80;;;;;;4971896;28;20085;-61
2023/03/05 06:14:17;;;;;;;100.80;60.90;;;179.40;2252.80;;;;;;4971777;28;20039;-60
2023/03/05 06:16:43;;;;;;;126.47;82.72;;;179.60;2252.80;;;;;;4971317;28;20038;-60
2023/03/05 06:19:14;;;;;;;46.58;30.38;;;179.80;2252.80;;;;;;4971570;28;20105;-61
2023/03/05 06:21:39;;;;;;;40.88;26.05;;;179.90;2252.80;;;;;;4971616;28;20031;-61
2023/03/05 06:24:06;;;;;;;50.92;28.15;;;180.00;2252.80;;;;;;4971402;28;20041;-61
2023/03/05 06:26:32;;;;;;;52.58;30.65;;;204.80;2252.80;;;;;;4971929;28;20069;-60
2023/03/05 06:28:58;;;;;;;47.22;24.67;;;180.00;2252.80;;;;;;4971522;28;20088;-61
2023/03/05 06:31:25;;;;;;;44.67;22.48;;;204.80;2252.80;;;;;;4972018;28;20030;-61
2023/03/05 06:33:52;;;;;;;39.58;21.35;;;205.10;2252.80;;;;;;4971771;28;20082;-60
2023/03/05 06:36:19;;;;;;;38.20;20.98;;;205.20;2252.80;;;;;;4971518;28;20382;-72
2023/03/05 06:38:46;;;;;;;36.47;22.23;;;205.20;2252.80;;;;;;4970952;28;20051;-61
2023/03/05 06:41:17;;;;;;;39.95;23.65;;;205.30;2252.80;;;;;;4971582;28;20034;-61
2023/03/05 06:43:44;;;;;;;56.47;33.47;;;205.40;2252.80;;;;;;4971413;28;20405;-61
2023/03/05 06:46:25;;;;;;;52.97;28.40;;;205.40;2252.80;;;;;;4971439;28;20027;-68
2023/03/05 06:48:54;;;;;;;49.72;26.30;;;205.30;2252.80;;;;;;4971592;28;20031;-60
2023/03/05 06:51:26;;;;;;;42.40;23.45;;;205.20;2252.80;;;;;;4971110;28;20049;-59
2023/03/05 06:53:53;;;;;;;53.65;29.05;;;205.30;2252.80;;;;;;4971111;28;20500;-61
2023/03/05 06:56:19;;;;;;;42.25;25.00;;;205.30;2252.80;;;;;;4971037;28;20477;-61
2023/03/05 06:58:46;;;;;;;36.92;22.65;;;205.30;2252.80;;;;;;4971455;28;20035;-60
2023/03/05 07:01:13;;;;;;;40.28;26.00;;;205.30;2252.80;;;;;;4971363;28;20377;-61
2023/03/05 07:03:40;;;;;;;45.30;27.33;;;205.50;2252.80;;;;;;4970980;28;20033;-60
2023/03/05 07:06:07;;;;;;;52.50;28.52;;;230.50;2252.80;;;;;;4971080;28;20109;-61
2023/03/05 07:08:33;;;;;;;47.20;28.25;;;231.20;2252.80;;;;;;4970740;28;20022;-61
2023/03/05 07:10:59;;;;;;;45.40;28.23;;;256.60;2252.80;;;;;;4970959;28;20023;-62
2023/03/05 07:13:26;;;;;;;45.05;25.60;;;256.60;2252.80;;;;;;4971317;28;21024;-61
2023/03/05 07:15:52;;;;;;;48.83;28.23;;;281.80;2278.40;;;;;;4971212;28;20395;-61
2023/03/05 07:18:18;;;;;;;67.57;44.53;;;256.70;2252.80;;;;;;4970884;28;20069;-73
2023/03/05 07:20:43;;;;;;;47.00;29.58;;;256.40;2252.80;;;;;;4971018;28;20054;-60
2023/03/05 07:23:09;;;;;;;54.58;36.92;;;231.30;2252.80;;;;;;4971163;28;20030;-61
2023/03/05 07:25:36;;;;;;;71.80;48.00;;;231.20;2252.80;;;;;;4970580;28;20025;-61
2023/03/05 07:28:04;;;;;;;53.97;29.67;;;231.00;2252.80;;;;;;4971902;28;20027;-60
2023/03/05 07:30:30;;;;;;;43.90;26.52;;;230.90;2252.80;;;;;;4977295;28;20037;-71
2023/03/05 07:32:56;;;;;;;49.08;32.35;;;230.70;2252.80;;;;;;4977320;28;20069;-63
2023/03/05 07:35:23;;;;;;;36.42;24.90;;;230.50;2252.80;;;;;;4977337;28;20114;-61
2023/03/05 07:37:49;;;;;;;36.50;23.35;;;230.40;2252.80;;;;;;4977039;28;20390;-61
2023/03/05 07:40:15;;;;;;;33.95;20.98;;;205.70;2252.80;;;;;;4976469;28;20070;-61
2023/03/05 07:42:41;;;;;;;27.02;18.40;;;230.40;2252.80;;;;;;4977179;28;20042;-61
2023/03/05 07:45:07;;;;;;;43.55;28.50;;;205.70;2252.80;;;;;;4976844;28;20040;-61
2023/03/05 07:47:33;;;;;;;26.67;21.42;;;230.40;2252.80;;;;;;4977181;28;20113;-61
2023/03/05 07:49:59;;;;;;;36.33;19.65;;;230.50;2252.80;;;;;;4976551;28;20022;-61
2023/03/05 07:52:25;;;;;;;27.08;16.33;;;230.40;2252.80;;;;;;4977006;28;20034;-61
2023/03/05 07:54:51;;;;;;;23.92;14.27;;;205.70;2252.80;;;;;;4976894;28;20031;-61
2023/03/05 07:57:16;;;;;;;24.77;16.13;;;205.60;2252.80;;;;;;4977033;28;20038;-68
2023/03/05 07:59:42;;;;;;;24.30;14.27;;;230.40;2252.80;;;;;;4976912;28;20187;-60
2023/03/05 08:02:12;;;;;;;22.30;15.00;;;230.50;2252.80;;;;;;4976910;28;20034;-61
2023/03/05 08:04:38;;;;;;;28.05;15.55;;;230.70;2252.80;;;;;;4976573;28;20034;-61
2023/03/05 08:07:04;;;;;;;25.00;15.27;;;230.90;2252.80;;;;;;4976956;28;20035;-60
2023/03/05 08:09:30;;;;;;;35.35;19.00;;;231.00;2252.80;;;;;;4977053;28;20023;-60
2023/03/05 08:11:56;;;;;;;26.77;18.70;;;231.00;2252.80;;;;;;4976998;28;20089;-61
2023/03/05 08:14:21;;;;;;;22.35;13.82;;;231.10;2252.80;;;;;;4976831;28;20019;-61
2023/03/05 08:16:51;;;;;;;21.83;15.82;;;231.10;2252.80;;;;;;4976381;28;20378;-61
2023/03/05 08:19:18;;;;;;;23.15;13.65;;;231.10;2227.20;;;;;;4976876;28;20458;-61
2023/03/05 08:21:45;;;;;;;24.33;15.13;;;230.90;2176.00;;;;;;4976828;28;20051;-60
2023/03/05 08:24:11;;;;;;;21.73;15.00;;;230.80;2176.00;;;;;;4976533;28;20098;-60
2023/03/05 08:26:38;;;;;;;19.65;14.27;;;230.70;2201.60;;;;;;4976663;28;20027;-61
2023/03/05 08:29:04;;;;;;;22.10;13.93;;;230.80;2227.20;;;;;;4976944;28;20166;-61
2023/03/05 08:31:31;;;;;;;28.55;15.80;;;231.00;2176.00;;;;;;4976713;28;20117;-61
2023/03/05 08:33:58;;;;;;;19.15;11.88;;;231.00;2201.60;;;;;;4976550;28;20026;-61
2023/03/05 08:36:24;;;;;;;17.50;11.32;;;231.00;2201.60;;;;;;4976741;28;20061;-61
2023/03/05 08:38:50;;;;;;;23.50;13.95;;;231.00;2201.60;;;;;;4976434;28;20110;-60
2023/03/05 08:41:17;;;;;;;18.13;11.35;;;231.00;2201.60;;;;;;4972695;28;20125;-61
2023/03/05 08:43:43;;;;;;;25.35;13.68;;;230.90;2227.20;;;;;;4973317;28;20019;-60
2023/03/05 08:46:11;;;;;;;35.72;20.70;;;231.00;2201.60;;;;;;4972861;28;20078;-61
2023/03/05 08:48:36;;;;;;;98.63;62.40;;;231.00;2201.60;;;;;;4972835;28;20030;-71
2023/03/05 08:51:14;;;;;;;33.13;22.65;;;231.00;2176.00;;;;;;4972766;28;20421;-61
2023/03/05 08:53:41;;;;;;;38.65;29.17;;;231.10;2176.00;;;;;;4972586;28;20062;-61
2023/03/05 08:56:07;;;;;;;16.20;11.23;;;256.00;2124.80;;;;;;4972651;28;20057;-61
2023/03/05 08:58:32;;;;;;;20.92;13.52;;;231.20;2124.80;;;;;;4972628;28;20042;-61
2023/03/05 09:00:58;;;;;;;18.58;13.07;;;231.10;2099.20;;;;;;4973080;28;20023;-62
2023/03/05 09:03:24;;;;;;;19.40;11.25;;;231.30;2099.20;;;;;;4973602;28;20034;-61
2023/03/05 09:05:50;;;;;;;16.90;10.70;;;231.20;2099.20;;;;;;4973346;28;20418;-61
2023/03/05 09:08:16;;;;;;;19.33;12.65;;;256.00;2124.80;;;;;;4972234;28;20090;-62
2023/03/05 09:10:42;;;;;;;16.77;12.85;;;256.00;2048.00;;;;;;4973357;28;20093;-60
2023/03/05 09:13:09;;;;;;;29.20;20.85;;;256.20;2073.60;;;;;;4973045;28;20054;-61
2023/03/05 09:15:35;;;;;;;23.35;16.83;;;256.50;2022.40;;;;;;4973296;28;20031;-61
2023/03/05 09:18:01;;;;;;;140.57;83.85;;;256.30;2022.40;;;;;;4970342;28;20215;-61
2023/03/05 09:20:27;;;;;;;19.63;11.18;;;256.10;1996.80;;;;;;4971344;28;20073;-62
2023/03/05 09:22:53;;;;;;;21.27;11.05;;;256.30;1996.80;;;;;;4971377;28;20026;-61
2023/03/05 09:25:18;;;;;;;24.02;19.42;;;256.10;2022.40;;;;;;4971058;28;20149;-69
2023/03/05 09:27:44;;;;;;;14.95;9.35;;;231.30;2048.00;;;;;;4971299;28;20101;-68
2023/03/05 09:30:12;;;;;;;15.45;9.45;;;256.10;2022.40;;;;;;4971011;28;20031;-69
2023/03/05 09:32:38;;;;;;;15.32;9.75;;;256.40;2022.40;;;;;;4970756;28;20026;-67
2023/03/05 09:35:04;;;;;;;14.85;9.75;;;256.50;1996.80;;;;;;4971559;28;20046;-65
2023/03/05 09:37:30;;;;;;;22.17;10.35;;;256.40;1971.20;;;;;;4970586;28;20544;-65
2023/03/05 09:39:56;;;;;;;115.45;72.55;;;256.50;1971.20;;;;;;4970528;28;20126;-68
2023/03/05 09:42:52;;;;;;;18.05;11.75;;;256.50;1971.20;;;;;;4970599;28;20481;-70
2023/03/05 09:45:31;;;;;;;37.28;28.02;;;256.90;1996.80;;;;;;4970798;28;20030;-69
2023/03/05 09:48:14;;;;;;;18.90;14.85;;;281.70;1945.60;;;;;;4969616;28;20089;-67
2023/03/05 09:50:43;;;;;;;20.20;12.20;;;281.80;1920.00;;;;;;4970695;28;20031;-67
2023/03/05 09:53:46;;;;;;;13.35;8.52;;;281.70;1920.00;;;;;;4969519;28;20377;-66
2023/03/05 09:56:24;;;;;;;31.55;19.95;;;281.70;1920.00;;;;;;4966573;28;20106;-65
2023/03/05 09:58:58;;;;;;;213.02;151.90;;;281.70;1894.40;;;;;;4970536;28;20063;-66
2023/03/05 10:01:38;;;;;;;14.07;10.35;;;282.10;1894.40;;;;;;4970398;28;20378;-69
2023/03/05 10:04:24;;;;;;;11.25;8.38;;;281.90;1945.60;;;;;;4970301;28;20022;-67
2023/03/05 10:07:03;;;;;;;17.30;11.85;;;282.10;1894.40;;;;;;4970547;28;20030;-65
2023/03/05 10:09:47;;;;;;;23.40;17.05;;;281.90;1894.40;;;;;;4969613;28;20556;-66
2023/03/05 10:12:31;;;;;;;22.42;15.30;;;282.00;1920.00;;;;;;4970277;28;20078;-66
2023/03/05 10:14:59;;;;;;;;;;;282.30;1894.40;;;;;;4970645;28;20034;-69
2023/03/05 10:17:49;;;;;;;71.85;53.97;;;282.30;1843.20;;;;;;4970560;28;19914;-66
2023/03/05 10:20:20;;;;;;;56.20;43.05;;;256.90;1894.40;;;;;;4970445;28;20038;-68
2023/03/05 10:23:06;;;;;;;45.67;34.63;;;281.80;1920.00;;;;;;4969683;28;20029;-66
2023/03/05 10:25:41;;;;;;;20.90;17.08;;;282.20;1868.80;;;;;;4970467;28;20026;-69
2023/03/05 10:28:18;;;;;;;12.10;8.63;;;281.70;1894.40;;;;;;4969865;28;20050;-64
2023/03/05 10:31:11;;;;;;;22.48;17.33;;;281.90;1843.20;;;;;;4970245;28;20532;-70
2023/03/05 10:34:00;;;;;;;51.63;31.70;;;282.20;1868.80;;;;;;4959644;28;20105;-66
2023/03/05 10:36:37;;;;;;;31.90;21.83;;;307.20;1894.40;;;;;;4968376;28;20061;-67
2023/03/05 10:39:27;;;;;;;24.67;18.50;;;281.70;1894.40;;;;;;4967826;28;20047;-69
2023/03/05 10:42:04;;;;;;;19.67;13.55;;;282.10;1894.40;;;;;;4968512;28;20050;-70
2023/03/05 10:44:45;;;;;;;57.35;28.33;;;282.00;1868.80;;;;;;4966163;28;20048;-69
2023/03/05 10:47:39;;;;;;;28.13;18.50;;;282.10;1868.80;;;;;;4965898;28;20094;-69
2023/03/05 10:50:19;;;;;;;22.40;14.50;;;282.50;1843.20;;;;;;4968503;28;20023;-66
2023/03/05 10:52:50;;;;;;;15.00;11.02;;;307.20;1868.80;;;;;;4968450;28;20037;-68
2023/03/05 10:55:20;;;;;;;14.45;8.50;;;307.50;1843.20;;;;;;4967040;28;20051;-69
2023/03/05 10:57:46;;;;;;;21.60;11.85;;;307.40;1868.80;;;;;;4968811;28;20039;-69
2023/03/05 11:00:25;;;;;;;16.85;10.80;;;307.50;1792.00;;;;;;4969577;28;20023;-68
2023/03/05 11:03:04;;;;;;;22.52;18.17;;;307.90;1843.20;;;;;;4968385;28;20030;-69
2023/03/05 11:05:36;;;;;;;24.15;17.60;;;307.70;1715.20;;;;;;4968963;28;20046;-70
2023/03/05 11:08:19;;;;;;;17.33;12.52;;;308.00;1740.80;;;;;;4968666;28;20035;-68
2023/03/05 11:10:45;;;;;;;11.80;7.78;;;332.80;1817.60;;;;;;4969141;28;20604;-68
2023/03/05 11:13:26;;;;;;;11.65;8.85;;;308.00;1766.40;;;;;;4969203;28;20130;-68
2023/03/05 11:16:04;;;;;;;16.40;12.25;;;308.10;1817.60;;;;;;4968634;28;20042;-69
2023/03/05 11:18:33;;;;;;;12.57;8.70;;;332.90;1792.00;;;;;;4969320;28;20043;-69
2023/03/05 11:21:22;;;;;;;12.52;6.82;;;333.00;1843.20;;;;;;4968851;28;20023;-70
2023/03/05 11:24:15;;;;;;;14.02;10.43;;;307.80;1817.60;;;;;;4969307;28;20026;-67
2023/03/05 11:26:51;;;;;;;30.35;20.85;;;308.10;1766.40;;;;;;4969577;28;20086;-66
2023/03/05 11:29:24;;;;;;;17.77;9.15;;;307.80;1792.00;;;;;;4968979;28;20053;-68
2023/03/05 11:31:50;;;;;;;19.42;14.23;;;307.70;1843.20;;;;;;4968788;28;20046;-69
2023/03/05 11:34:16;;;;;;;10.77;9.25;;;307.70;1792.00;;;;;;4969265;28;20030;-65
2023/03/05 11:36:57;;;;;;;14.73;10.30;;;308.00;1792.00;;;;;;4968770;28;20031;-69
2023/03/05 11:39:24;;;;;;;11.30;8.43;;;282.10;1792.00;;;;;;4967772;28;20050;-69
2023/03/05 11:41:52;;;;;;;25.27;15.70;;;307.70;1792.00;;;;;;4968598;28;20117;-69
2023/03/05 11:44:25;;;;;;;10.30;7.82;;;308.00;1792.00;;;;;;4969124;28;20027;-70
2023/03/05 11:47:33;;;;;;;11.20;8.45;;;308.00;1843.20;;;;;;4969062;28;20026;-71
2023/03/05 11:50:40;;;;;;;11.70;8.68;;;308.10;1817.60;;;;;;4889724;29;20128;-70
2023/03/05 11:53:12;;;;;;;16.33;11.25;;;308.10;1817.60;;;;;;4851805;29;20101;-68
2023/03/05 11:55:45;;;;;;;18.40;13.60;;;333.00;1817.60;;;;;;4837348;29;20099;-70
2023/03/05 11:58:33;;;;;;;28.73;21.48;;;333.20;1817.60;;;;;;4853093;29;20050;-68
2023/03/05 12:01:00;;;;;;;20.10;14.25;;;308.00;1766.40;;;;;;4852764;29;20033;-69
2023/03/05 12:03:35;;;;;;;27.60;20.05;;;307.70;1766.40;;;;;;4852658;29;20044;-68
2023/03/05 12:06:26;;;;;;;16.52;11.15;;;307.80;1792.00;;;;;;4852642;29;20033;-66
2023/03/05 12:08:55;;;;;;;83.82;51.08;;;307.60;1817.60;;;;;;4852553;29;20894;-68